createdAt,value
2023-03-08T00:02:04.161Z,65824.88
2023-03-08T00:07:08.454Z,65841.97
2023-03-08T00:12:14.276Z,65814.19
2023-03-08T00:17:18.721Z,65786.38
2023-03-08T00:22:23.062Z,65774.09
2023-03-08T00:27:28.963Z,65800.38
2023-03-08T00:32:34.307Z,65835.03
2023-03-08T00:37:38.792Z,65830.66
2023-03-08T00:42:44.740Z,65800.91
2023-03-08T00:47:48.856Z,65804.66
2023-03-08T00:52:53.309Z,65777.28
2023-03-08T00:57:59.303Z,65814.34
2023-03-08T01:03:05.610Z,65812.66
2023-03-08T01:08:10.476Z,65776.31
2023-03-08T01:13:16.320Z,65763.31
2023-03-08T01:18:21.578Z,65731.44
2023-03-08T01:23:26.574Z,65809.03
2023-03-08T01:28:32.850Z,65831.28
2023-03-08T01:33:37.838Z,65792.91
2023-03-08T01:38:42.267Z,65752.91
2023-03-08T01:43:49.266Z,65772.03
2023-03-08T01:48:57.976Z,65717.56
2023-03-08T01:54:06.426Z,65706.69
2023-03-08T01:59:13.091Z,65761.25
2023-03-08T02:04:17.489Z,65713.19
2023-03-08T02:09:24.231Z,65761.97
2023-03-08T02:14:31.834Z,65759.41
2023-03-08T02:19:44.985Z,65771.84
2023-03-08T02:24:50.830Z,65717.56
2023-03-08T02:29:55.150Z,65800.28
2023-03-08T02:35:00.298Z,65825.50
2023-03-08T02:40:07.536Z,65790.66
2023-03-08T02:45:12.588Z,65739.91
2023-03-08T02:50:17.661Z,65734.03
2023-03-08T02:55:24.046Z,65749.06
2023-03-08T03:00:28.688Z,65721.28
2023-03-08T03:05:33.446Z,65736.78
2023-03-08T03:10:43.647Z,65791.75
2023-03-08T03:15:48.264Z,65733.13
2023-03-08T03:20:52.743Z,65727.59
2023-03-08T03:25:58.771Z,65750.69
2023-03-08T03:31:03.846Z,65736.16
2023-03-08T03:36:10.911Z,65793.44
2023-03-08T03:41:20.163Z,65740.44
2023-03-08T03:46:26.779Z,65763.50
2023-03-08T03:51:34.063Z,65771.41
2023-03-08T03:56:51.038Z,65832.44
2023-03-08T04:01:59.350Z,65788.09
2023-03-08T04:07:13.384Z,65762.97
2023-03-08T04:12:26.027Z,65701.34
2023-03-08T04:17:30.956Z,65748.09
2023-03-08T04:22:35.413Z,65742.56
2023-03-08T04:27:49.108Z,65750.75
2023-03-08T04:32:53.691Z,65668.00
2023-03-08T04:38:01.664Z,65652.53
2023-03-08T04:43:07.521Z,65715.75
2023-03-08T04:48:16.742Z,65693.09
2023-03-08T04:53:21.789Z,65699.31
2023-03-08T04:58:28.587Z,65590.09
2023-03-08T05:03:33.169Z,65712.66
2023-03-08T05:08:38.485Z,65603.22
2023-03-08T05:13:45.342Z,65593.75
2023-03-08T05:18:49.998Z,65666.09
2023-03-08T05:23:57.029Z,65588.94
2023-03-08T05:29:06.472Z,65679.66
2023-03-08T05:34:12.392Z,65691.31
2023-03-08T05:39:19.600Z,65618.09
2023-03-08T05:44:38.132Z,65651.88
2023-03-08T05:49:43.950Z,65731.44
2023-03-08T05:54:50.125Z,65686.59
2023-03-08T05:59:58.276Z,65774.16
2023-03-08T06:05:03.032Z,65753.78
2023-03-08T06:10:08.754Z,65752.19
2023-03-08T06:15:14.602Z,65753.88
2023-03-08T06:20:19.129Z,65718.88
2023-03-08T06:25:27.364Z,65716.84
2023-03-08T06:30:34.134Z,65720.75
2023-03-08T06:35:44.075Z,65731.00
2023-03-08T06:40:49.401Z,65731.97
2023-03-08T06:45:55.478Z,65708.56
2023-03-08T06:50:59.968Z,65695.56
2023-03-08T06:56:04.423Z,65752.81
2023-03-08T07:01:11.575Z,65713.94
2023-03-08T07:06:16.574Z,65747.56
2023-03-08T07:11:21.087Z,65750.69
2023-03-08T07:16:27.024Z,65704.31
2023-03-08T07:21:31.108Z,65718.00
2023-03-08T07:26:35.567Z,65771.59
2023-03-08T07:31:41.446Z,65798.25
2023-03-08T07:36:45.623Z,65809.03
2023-03-08T07:41:50.548Z,65786.06
2023-03-08T07:46:56.527Z,65819.50
2023-03-08T07:52:00.731Z,65800.38
2023-03-08T07:57:05.943Z,65796.09
2023-03-08T08:02:13.938Z,65842.16
2023-03-08T08:07:18.738Z,65841.44
2023-03-08T08:12:23.788Z,65822.28
2023-03-08T08:17:29.698Z,65817.81
2023-03-08T08:22:35.882Z,65878.31
2023-03-08T08:27:40.480Z,65841.53
2023-03-08T08:32:46.463Z,65912.66
2023-03-08T08:37:51.035Z,65846.88
2023-03-08T08:42:55.443Z,65856.41
2023-03-08T08:48:01.214Z,65887.50
2023-03-08T08:53:05.765Z,65895.44
2023-03-08T08:58:10.708Z,65819.09
2023-03-08T09:03:16.604Z,65807.50
2023-03-08T09:08:21.347Z,65837.59
2023-03-08T09:13:26.376Z,65839.28
2023-03-08T09:18:32.383Z,65820.56
2023-03-08T09:23:36.620Z,65804.66
2023-03-08T09:28:41.079Z,65829.13
2023-03-08T09:33:48.968Z,65903.09
2023-03-08T09:38:54.164Z,65977.38
2023-03-08T09:44:15.030Z,65919.59
2023-03-08T09:49:24.409Z,65926.00
2023-03-08T09:54:29.633Z,65923.88
2023-03-08T09:59:41.099Z,65941.44
2023-03-08T10:05:12.201Z,66021.31
2023-03-08T10:10:32.158Z,66025.44
2023-03-08T10:15:41.938Z,66125.75
2023-03-08T10:20:49.699Z,66046.97
2023-03-08T10:25:54.351Z,66079.00
2023-03-08T10:31:01.004Z,65989.75
2023-03-08T10:36:12.907Z,66010.47
2023-03-08T10:41:18.932Z,66033.03
2023-03-08T10:46:24.526Z,66005.00
2023-03-08T10:51:31.612Z,65973.59
2023-03-08T10:56:39.725Z,66039.91
2023-03-08T11:01:51.182Z,66028.84
2023-03-08T11:06:57.151Z,66010.09
2023-03-08T11:12:01.778Z,66051.69
2023-03-08T11:17:19.917Z,66035.16
2023-03-08T11:22:34.468Z,66086.84
2023-03-08T11:27:51.370Z,66148.19
2023-03-08T11:33:32.996Z,66130.59
2023-03-08T11:38:40.010Z,66128.47
2023-03-08T11:43:57.012Z,66109.72
2023-03-08T11:49:28.576Z,66096.13
2023-03-08T11:54:48.084Z,66104.63
2023-03-08T11:59:58.345Z,66176.59
2023-03-08T12:05:11.609Z,66367.53
2023-03-08T12:10:30.547Z,66411.56
2023-03-08T12:15:40.406Z,66354.56
2023-03-08T12:20:46.500Z,66243.63
2023-03-08T12:26:00.659Z,66205.53
2023-03-08T12:31:27.555Z,66334.88
2023-03-08T12:36:41.025Z,66356.63
2023-03-08T12:41:59.101Z,66288.66
2023-03-08T12:47:18.249Z,66259.69
2023-03-08T12:52:31.427Z,66254.88
2023-03-08T12:57:43.080Z,66317.69
2023-03-08T13:02:47.645Z,66400.16
2023-03-08T13:08:02.046Z,66260.41
2023-03-08T13:13:38.722Z,66284.44
2023-03-08T13:18:45.064Z,66368.06
2023-03-08T13:23:54.274Z,66317.09
2023-03-08T13:29:00.486Z,66272.47
2023-03-08T13:34:05.040Z,66386.84
2023-03-08T13:39:19.680Z,66498.53
2023-03-08T13:44:27.661Z,66711.38
2023-03-08T13:49:35.867Z,66448.59
2023-03-08T13:54:46.473Z,66525.88
2023-03-08T13:59:54.120Z,66383.09
2023-03-08T14:04:59.955Z,66312.78
2023-03-08T14:10:05.793Z,66299.91
2023-03-08T14:15:19.835Z,66506.53
2023-03-08T14:20:26.193Z,66432.41
2023-03-08T14:25:34.255Z,66390.16
2023-03-08T14:30:49.083Z,66423.38
2023-03-08T14:35:57.921Z,66314.50
2023-03-08T14:41:06.258Z,66190.50
2023-03-08T14:46:20.071Z,66199.00
2023-03-08T14:51:30.391Z,66217.94
2023-03-08T14:56:35.757Z,66217.50
2023-03-08T15:01:41.876Z,66272.75
2023-03-08T15:06:47.008Z,66223.50
2023-03-08T15:11:54.051Z,66223.66
2023-03-08T15:17:00.242Z,66224.81
2023-03-08T15:22:06.843Z,66334.25
2023-03-08T15:27:20.527Z,66412.16
2023-03-08T15:32:26.646Z,66286.59
2023-03-08T15:37:32.100Z,66219.38
2023-03-08T15:42:36.788Z,66282.13
2023-03-08T15:47:42.993Z,66335.25
2023-03-08T15:52:47.851Z,66340.63
2023-03-08T15:57:52.908Z,66324.59
2023-03-08T16:02:59.271Z,66293.03
2023-03-08T16:08:05.375Z,66220.97
2023-03-08T16:13:09.603Z,66193.28
2023-03-08T16:18:15.479Z,66165.25
2023-03-08T16:23:19.560Z,66058.75
2023-03-08T16:28:23.981Z,66038.72
2023-03-08T16:33:30.235Z,66013.66
2023-03-08T16:38:34.918Z,66018.66
2023-03-08T16:45:38.676Z,66133.63
2023-03-08T16:49:06.239Z,66089.16
2023-03-08T16:54:11.205Z,66122.47
2023-03-08T16:59:16.775Z,66041.50
2023-03-08T17:04:23.272Z,65998.25
2023-03-08T17:09:27.715Z,66004.13
2023-03-08T17:14:34.626Z,66037.31
2023-03-08T17:19:41.187Z,66075.44
2023-03-08T17:24:45.561Z,66015.44
2023-03-08T17:29:53.477Z,66009.56
2023-03-08T17:34:59.520Z,66059.19
2023-03-08T17:40:04.864Z,66085.44
2023-03-08T17:45:10.603Z,66079.09
2023-03-08T17:50:16.346Z,66098.81
2023-03-08T17:55:20.693Z,66008.84
2023-03-08T18:00:25.326Z,66024.44
2023-03-08T18:05:31.240Z,66070.69
2023-03-08T18:10:35.550Z,66139.72
2023-03-08T18:15:39.853Z,66095.69
2023-03-08T18:20:46.423Z,66039.44
2023-03-08T18:25:50.862Z,66034.53
2023-03-08T18:30:55.204Z,65957.56
2023-03-08T18:36:02.411Z,65982.09
2023-03-08T18:41:13.286Z,66003.69
2023-03-08T18:46:17.755Z,65990.22
2023-03-08T18:51:23.923Z,65992.25
2023-03-08T18:56:30.037Z,66042.03
2023-03-08T19:01:34.845Z,65980.03
2023-03-08T19:06:40.977Z,66074.81
2023-03-08T19:11:45.735Z,66086.03
2023-03-08T19:16:50.075Z,66128.09
2023-03-08T19:21:55.888Z,66159.53
2023-03-08T19:27:02.252Z,66041.66
2023-03-08T19:32:08.411Z,66184.09
2023-03-08T19:37:15.326Z,66112.75
2023-03-08T19:42:19.756Z,66144.88
2023-03-08T19:47:24.068Z,66144.88
2023-03-08T19:52:29.984Z,66183.47
2023-03-08T19:57:34.373Z,66084.34
2023-03-08T20:02:40.694Z,66125.59
2023-03-08T20:07:46.571Z,66116.41
2023-03-08T20:12:52.602Z,66172.31
2023-03-08T20:17:56.954Z,66119.81
2023-03-08T20:23:02.882Z,66185.78
2023-03-08T20:28:07.550Z,66187.75
2023-03-08T20:33:12.539Z,66167.56
2023-03-08T20:38:18.594Z,66169.19
2023-03-08T20:43:23.518Z,66163.09
2023-03-08T20:48:28.064Z,66120.22
2023-03-08T20:53:35.134Z,66154.09
2023-03-08T20:58:39.603Z,66117.63
2023-03-08T21:03:44.276Z,66195.34
2023-03-08T21:08:51.087Z,66148.53
2023-03-08T21:13:55.661Z,66108.56
2023-03-08T21:19:02.413Z,66129.44
2023-03-08T21:24:10.047Z,66109.09
2023-03-08T21:29:16.296Z,66164.72
2023-03-08T21:34:21.491Z,66163.72
2023-03-08T21:39:27.389Z,66128.34
2023-03-08T21:44:32.179Z,66126.22
2023-03-08T21:49:36.557Z,66178.28
2023-03-08T21:54:42.547Z,66084.97
2023-03-08T21:59:46.888Z,66077.50
2023-03-08T22:04:51.223Z,66042.03
2023-03-08T22:09:56.913Z,66122.94
2023-03-08T22:15:01.248Z,66086.69
2023-03-08T22:20:06.364Z,66106.75
2023-03-08T22:25:12.633Z,66113.81
2023-03-08T22:30:17.395Z,66109.53
2023-03-08T22:35:22.447Z,66125.88
2023-03-08T22:40:29.563Z,66075.34
2023-03-08T22:45:35.040Z,66139.25
2023-03-08T22:50:40.550Z,66051.88
2023-03-08T22:55:50.365Z,66116.56
2023-03-08T23:00:55.013Z,66101.50
2023-03-08T23:05:59.559Z,66148.53
2023-03-08T23:11:06.317Z,66103.09
2023-03-08T23:16:13.854Z,66183.47
2023-03-08T23:21:20.405Z,66132.72
2023-03-08T23:26:28.615Z,66130.06
2023-03-08T23:31:35.913Z,66161.06
2023-03-08T23:36:40.572Z,66144.34
2023-03-08T23:41:46.478Z,66167.47
2023-03-08T23:46:50.579Z,66182.50
2023-03-08T23:51:55.149Z,66123.47
2023-03-08T23:57:01.156Z,66178.63
